Time;durP1;ratioP1;P1;durP2;ratioP2;P2;SDS_P1;SDS_P2;PMS_P1;PMS_P2;Temp;Humidity;BMP_temperature;BMP_pressure;BME280_temperature;BME280_humidity;BME280_pressure;Samples;Min_cycle;Max_cycle;Signal;HPM_P1;HPM_P2
2023/06/12 00:03:25;;;;;;;;;;;25.20;49.10;;;;;;10312141;28;93746;-66
2023/06/12 00:08:29;;;;;;;;;;;25.20;49.00;;;;;;10328973;28;93471;-67
2023/06/12 00:13:30;;;;;;;;;;;25.20;48.90;;;;;;10310532;28;95597;-65
2023/06/12 00:18:32;;;;;;;;;;;25.20;48.70;;;;;;10325963;28;96647;-65
2023/06/12 00:23:35;;;;;;;;;;;25.20;48.70;;;;;;10327923;28;93467;-65
2023/06/12 00:28:37;;;;;;;;;;;25.20;48.70;;;;;;10327324;28;94936;-65
2023/06/12 00:33:39;;;;;;;;;;;25.10;48.50;;;;;;10334221;28;94446;-65
2023/06/12 00:38:41;;;;;;;;;;;25.20;48.60;;;;;;10341414;28;94019;-65
2023/06/12 00:43:43;;;;;;;;;;;25.10;48.20;;;;;;10342586;28;93846;-65
2023/06/12 00:48:46;;;;;;;;;;;25.10;48.20;;;;;;10323737;28;94474;-65
2023/06/12 00:53:52;;;;;;;;;;;25.20;48.30;;;;;;10324212;28;92924;-65
2023/06/12 00:58:55;;;;;;;;;;;25.10;48.30;;;;;;10323229;28;92923;-65
2023/06/12 01:03:57;;;;;;;;;;;25.10;48.20;;;;;;10340634;28;94290;-65
2023/06/12 01:09:09;;;;;;;;;;;25.10;48.20;;;;;;10337788;28;95881;-65
2023/06/12 01:14:14;;;;;;;;;;;25.10;48.40;;;;;;10322793;28;93852;-65
2023/06/12 01:19:19;;;;;;;;;;;25.10;48.40;;;;;;10340247;28;94520;-65
2023/06/12 01:24:40;;;;;;;;;;;25.10;48.40;;;;;;10322897;28;94165;-65
2023/06/12 01:29:49;;;;;;;;;;;25.00;48.40;;;;;;10339760;28;92965;-65
2023/06/12 01:35:05;;;;;;;;;;;25.00;48.40;;;;;;10340359;28;93566;-65
2023/06/12 01:40:07;;;;;;;;;;;25.00;48.40;;;;;;10339868;28;94310;-65
2023/06/12 01:45:10;;;;;;;;;;;25.00;48.50;;;;;;10337744;28;92112;-65
2023/06/12 01:50:13;;;;;;;;;;;25.00;48.50;;;;;;10332136;28;93884;-65
2023/06/12 01:55:19;;;;;;;;;;;25.00;48.50;;;;;;10314655;28;93997;-65
2023/06/12 02:00:21;;;;;;;;;;;25.00;48.30;;;;;;10312052;28;97035;-65
2023/06/12 02:05:22;;;;;;;;;;;25.00;48.50;;;;;;10331896;28;93990;-65
2023/06/12 02:10:24;;;;;;;;;;;25.00;48.40;;;;;;10331456;28;93717;-65
2023/06/12 02:15:26;;;;;;;;;;;25.00;48.40;;;;;;10331657;28;93650;-65
2023/06/12 02:20:28;;;;;;;;;;;25.00;48.50;;;;;;10331856;28;94458;-65
2023/06/12 02:25:30;;;;;;;;;;;25.00;48.50;;;;;;10331254;28;94798;-65
2023/06/12 02:30:34;;;;;;;;;;;25.00;48.40;;;;;;10331626;28;93409;-65
2023/06/12 02:35:36;;;;;;;;;;;25.00;48.30;;;;;;10332209;28;92842;-65
2023/06/12 02:40:38;;;;;;;;;;;25.00;48.30;;;;;;10331132;28;94488;-65
2023/06/12 02:45:39;;;;;;;;;;;25.00;48.30;;;;;;10332843;28;94482;-65
2023/06/12 02:50:41;;;;;;;;;;;25.00;48.30;;;;;;10328225;28;95836;-65
2023/06/12 02:55:44;;;;;;;;;;;25.00;48.30;;;;;;10329107;28;93559;-66
2023/06/12 03:00:46;;;;;;;;;;;25.00;48.30;;;;;;10330732;28;94051;-64
2023/06/12 03:05:49;;;;;;;;;;;25.00;48.30;;;;;;10313199;28;92952;-65
2023/06/12 03:10:50;;;;;;;;;;;25.00;48.30;;;;;;10330005;28;93471;-65
2023/06/12 03:15:52;;;;;;;;;;;25.00;48.30;;;;;;10330682;28;94144;-65
2023/06/12 03:20:54;;;;;;;;;;;25.00;48.30;;;;;;10314322;28;95631;-66
2023/06/12 03:25:56;;;;;;;;;;;25.00;48.30;;;;;;10330811;28;92806;-65
2023/06/12 03:30:57;;;;;;;;;;;24.90;48.30;;;;;;10329905;28;93513;-65
2023/06/12 03:35:59;;;;;;;;;;;24.90;48.40;;;;;;10329647;28;93438;-64
2023/06/12 03:41:01;;;;;;;;;;;24.90;48.30;;;;;;10327975;28;97245;-66
2023/06/12 03:46:04;;;;;;;;;;;24.90;48.30;;;;;;10330222;28;94481;-65
2023/06/12 03:51:05;;;;;;;;;;;24.90;48.30;;;;;;10328495;28;93448;-65
2023/06/12 03:56:07;;;;;;;;;;;24.90;48.20;;;;;;10312016;28;93259;-65
2023/06/12 04:01:09;;;;;;;;;;;24.90;48.20;;;;;;10311143;28;93228;-65
2023/06/12 04:06:11;;;;;;;;;;;24.80;48.20;;;;;;10328462;28;93608;-64
2023/06/12 04:11:14;;;;;;;;;;;24.80;48.20;;;;;;10328336;28;94478;-64
2023/06/12 04:16:16;;;;;;;;;;;24.80;49.20;;;;;;10312181;28;93608;-65
2023/06/12 04:21:20;;;;;;;;;;;24.80;48.20;;;;;;10327729;28;93446;-65
2023/06/12 04:26:24;;;;;;;;;;;24.80;48.30;;;;;;10327838;28;93480;-65
2023/06/12 04:31:26;;;;;;;;;;;24.80;48.30;;;;;;10325017;28;97003;-65
2023/06/12 04:36:28;;;;;;;;;;;24.80;48.40;;;;;;10328252;28;93521;-65
2023/06/12 04:41:32;;;;;;;;;;;24.80;48.50;;;;;;10327133;28;92868;-65
2023/06/12 04:51:54;;;;;;;;;;;24.80;48.50;;;;;;10354529;28;94531;-65
2023/06/12 05:03:02;;;;;;;;;;;24.70;48.60;;;;;;10349546;28;93170;-66
2023/06/12 05:14:26;;;;;;;;;;;24.70;48.60;;;;;;10351640;28;93881;-65
2023/06/12 05:25:34;;;;;;;;;;;24.80;48.80;;;;;;10358648;28;95160;-66
2023/06/12 05:30:36;;;;;;;;;;;24.80;48.80;;;;;;10350739;28;93797;-66
2023/06/12 05:35:38;;;;;;;;;;;24.80;49.30;;;;;;10356618;28;94424;-64
2023/06/12 05:40:40;;;;;;;;;;;24.70;50.00;;;;;;10370213;28;94000;-64
2023/06/12 05:51:24;;;;;;;;;;;24.80;50.90;;;;;;10336111;28;94600;-65
2023/06/12 05:56:27;;;;;;;;;;;24.80;50.70;;;;;;10334658;28;94612;-64
2023/06/12 06:01:34;;;;;;;;;;;24.80;50.60;;;;;;10334718;28;93179;-68
2023/06/12 06:06:36;;;;;;;;;;;24.80;50.70;;;;;;10331567;28;93617;-68
2023/06/12 06:11:38;;;;;;;;;;;24.90;50.40;;;;;;10333771;28;94615;-68
2023/06/12 06:16:40;;;;;;;;;;;24.90;49.90;;;;;;10331016;28;96819;-68
2023/06/12 06:21:56;;;;;;;;;;;24.90;49.80;;;;;;10332801;28;94493;-68
2023/06/12 06:26:58;;;;;;;;;;;25.00;50.00;;;;;;10332667;28;93664;-63
2023/06/12 06:32:00;;;;;;;;;;;25.00;50.00;;;;;;10332043;28;93653;-63
2023/06/12 06:37:02;;;;;;;;;;;25.00;50.10;;;;;;10330770;28;93480;-63
2023/06/12 06:42:04;;;;;;;;;;;25.00;49.90;;;;;;10332033;28;94832;-63
2023/06/12 06:47:09;;;;;;;;;;;25.10;49.90;;;;;;10331889;28;93454;-63
2023/06/12 06:52:11;;;;;;;;;;;25.10;49.70;;;;;;10330661;28;92780;-62
2023/06/12 06:57:13;;;;;;;;;;;25.20;49.70;;;;;;10330212;28;93468;-64
2023/06/12 07:02:15;;;;;;;;;;;25.20;49.50;;;;;;10331459;28;94439;-69
2023/06/12 07:07:17;;;;;;;;;;;25.30;49.60;;;;;;10329756;28;95933;-68
2023/06/12 07:12:19;;;;;;;;;;;25.30;49.50;;;;;;10331527;28;93501;-68
2023/06/12 07:17:21;;;;;;;;;;;25.40;49.50;;;;;;10331226;28;94243;-63
2023/06/12 07:22:23;;;;;;;;;;;25.40;49.50;;;;;;10330778;28;93422;-64
2023/06/12 07:27:26;;;;;;;;;;;25.40;49.40;;;;;;10331342;28;94602;-64
2023/06/12 07:32:28;;;;;;;;;;;25.40;49.40;;;;;;10331071;28;93459;-63
2023/06/12 07:37:35;;;;;;;;;;;25.40;49.50;;;;;;10330037;28;93795;-63
2023/06/12 07:42:37;;;;;;;;;;;25.40;49.60;;;;;;10330455;28;92697;-65
2023/06/12 07:47:39;;;;;;;;;;;25.30;49.90;;;;;;10329441;28;93509;-63
2023/06/12 07:52:41;;;;;;;;;;;25.30;50.00;;;;;;10330242;28;93767;-64
2023/06/12 07:57:43;;;;;;;;;;;25.30;50.00;;;;;;10325720;28;95316;-64
2023/06/12 08:02:54;;;;;;;;;;;25.30;50.10;;;;;;10330069;28;93516;-63
2023/06/12 08:07:57;;;;;;;;;;;25.30;50.10;;;;;;10330165;28;92536;-65
2023/06/12 08:12:59;;;;;;;;;;;25.30;50.50;;;;;;10361330;28;94595;-63
2023/06/12 08:18:01;;;;;;;;;;;25.30;51.10;;;;;;10370586;28;92861;-63
2023/06/12 08:23:03;;;;;;;;;;;25.30;51.30;;;;;;10371197;28;94571;-64
2023/06/12 08:28:04;;;;;;;;;;;25.30;51.50;;;;;;10370872;28;94428;-64
2023/06/12 08:33:07;;;;;;;;;;;25.30;51.80;;;;;;10371541;28;92902;-64
2023/06/12 08:38:09;;;;;;;;;;;25.30;51.90;;;;;;10368756;28;93554;-64
2023/06/12 08:43:11;;;;;;;;;;;25.30;52.00;;;;;;10369684;28;94393;-64
2023/06/12 08:48:16;;;;;;;;;;;25.40;52.30;;;;;;10366477;28;95842;-64
2023/06/12 08:53:17;;;;;;;;;;;25.40;52.50;;;;;;10370558;28;93830;-64
2023/06/12 08:58:19;;;;;;;;;;;25.40;52.70;;;;;;10376633;28;92637;-64
2023/06/12 09:03:21;;;;;;;;;;;25.40;52.90;;;;;;10375910;28;94459;-63
2023/06/12 09:08:23;;;;;;;;;;;25.40;53.20;;;;;;10376995;28;94033;-64
2023/06/12 09:13:25;;;;;;;;;;;25.30;53.30;;;;;;10374750;28;93676;-64
2023/06/12 09:18:26;;;;;;;;;;;25.40;53.60;;;;;;10376536;28;94492;-64
2023/06/12 09:23:33;;;;;;;;;;;25.30;53.70;;;;;;10377837;28;93706;-64
2023/06/12 09:28:36;;;;;;;;;;;25.30;54.10;;;;;;10376604;28;94792;-65
2023/06/12 09:33:40;;;;;;;;;;;25.30;54.30;;;;;;10375647;28;93410;-64
2023/06/12 09:38:42;;;;;;;;;;;25.30;54.30;;;;;;10372752;28;95819;-64
2023/06/12 09:43:44;;;;;;;;;;;25.30;54.30;;;;;;10374817;28;94493;-64
2023/06/12 09:48:46;;;;;;;;;;;25.30;54.40;;;;;;10374597;28;94652;-69
2023/06/12 09:54:07;;;;;;;;;;;25.30;54.40;;;;;;10375341;28;92841;-69
2023/06/12 09:59:16;;;;;;;;;;;25.30;54.70;;;;;;10374236;28;94514;-64
2023/06/12 10:04:24;;;;;;;;;;;25.30;54.90;;;;;;10374226;28;93625;-64
2023/06/12 10:09:27;;;;;;;;;;;25.40;54.90;;;;;;10370978;28;93402;-64
2023/06/12 10:14:29;;;;;;;;;;;25.40;54.90;;;;;;10374994;28;93768;-64
2023/06/12 10:19:31;;;;;;;;;;;25.50;55.00;;;;;;10375056;28;93442;-65
2023/06/12 10:24:33;;;;;;;;;;;25.50;55.00;;;;;;10372483;28;93722;-63
2023/06/12 10:29:39;;;;;;;;;;;25.60;55.10;;;;;;10371991;28;97158;-64
2023/06/12 10:34:43;;;;;;;;;;;25.60;55.10;;;;;;10374949;28;94364;-64
2023/06/12 10:39:49;;;;;;;;;;;25.60;55.00;;;;;;10374354;28;94423;-64
2023/06/12 10:44:52;;;;;;;;;;;25.60;55.00;;;;;;10373486;28;93406;-69
2023/06/12 10:49:56;;;;;;;;;;;25.70;55.10;;;;;;10370701;28;93633;-69
2023/06/12 10:55:15;;;;;;;;;;;25.60;55.00;;;;;;10373290;28;94620;-68
2023/06/12 11:00:18;;;;;;;;;;;25.70;55.10;;;;;;10372050;28;93477;-68
2023/06/12 11:05:20;;;;;;;;;;;25.60;55.00;;;;;;10373684;28;93362;-64
2023/06/12 11:10:22;;;;;;;;;;;25.70;55.00;;;;;;10373091;28;93598;-64
2023/06/12 11:15:24;;;;;;;;;;;25.70;55.00;;;;;;10371090;28;94850;-64
2023/06/12 11:20:26;;;;;;;;;;;25.70;54.90;;;;;;10369128;28;96929;-64
2023/06/12 11:25:31;;;;;;;;;;;25.70;54.80;;;;;;10372358;28;93963;-64
2023/06/12 11:30:33;;;;;;;;;;;25.70;54.80;;;;;;10371949;28;94374;-64
2023/06/12 11:35:39;;;;;;;;;;;25.70;54.90;;;;;;10372634;28;93205;-69
2023/06/12 11:40:41;;;;;;;;;;;25.70;54.80;;;;;;10371572;28;94418;-69
2023/06/12 11:45:43;;;;;;;;;;;25.70;54.80;;;;;;10371954;28;94574;-69
2023/06/12 11:50:46;;;;;;;;;;;25.60;54.80;;;;;;10370435;28;94546;-64
2023/06/12 11:55:49;;;;;;;;;;;25.60;54.70;;;;;;10372068;28;92675;-65
2023/06/12 12:00:57;;;;;;;;;;;25.60;54.40;;;;;;10352911;28;94110;-64
2023/06/12 12:05:59;;;;;;;;;;;25.60;54.60;;;;;;10371632;28;94505;-64
2023/06/12 12:11:20;;;;;;;;;;;25.60;54.60;;;;;;10367428;28;96522;-65
2023/06/12 12:16:26;;;;;;;;;;;25.60;54.60;;;;;;10371308;28;94391;-64
2023/06/12 12:21:29;;;;;;;;;;;25.60;54.50;;;;;;10371279;28;93443;-64
2023/06/12 12:26:33;;;;;;;;;;;25.60;54.50;;;;;;10369410;28;94534;-64
2023/06/12 12:31:36;;;;;;;;;;;25.60;54.40;;;;;;10370396;28;93889;-64
2023/06/12 12:36:39;;;;;;;;;;;25.60;54.40;;;;;;10369653;28;93573;-64
2023/06/12 12:41:41;;;;;;;;;;;25.60;54.30;;;;;;10369507;28;93535;-69
2023/06/12 12:46:42;;;;;;;;;;;25.60;54.30;;;;;;10369977;28;92811;-70
2023/06/12 12:51:44;;;;;;;;;;;25.60;54.20;;;;;;10369996;28;93629;-64
2023/06/12 12:56:47;;;;;;;;;;;25.60;54.10;;;;;;10369839;28;93575;-64
2023/06/12 13:01:49;;;;;;;;;;;25.60;54.10;;;;;;10366482;28;95841;-65
2023/06/12 13:06:51;;;;;;;;;;;25.60;54.00;;;;;;10370128;28;93551;-69
2023/06/12 13:11:53;;;;;;;;;;;25.60;53.80;;;;;;10366990;28;94599;-69
2023/06/12 13:16:55;;;;;;;;;;;25.60;53.70;;;;;;10369575;28;94467;-69
2023/06/12 13:21:58;;;;;;;;;;;25.60;53.60;;;;;;10367746;28;93736;-69
2023/06/12 13:27:00;;;;;;;;;;;25.70;53.50;;;;;;10368338;28;94470;-69
2023/06/12 13:32:03;;;;;;;;;;;25.70;53.40;;;;;;10367561;28;93581;-68
2023/06/12 13:37:07;;;;;;;;;;;25.70;53.30;;;;;;10369409;28;93698;-69
2023/06/12 13:42:10;;;;;;;;;;;25.70;53.40;;;;;;10371928;28;94502;-69
2023/06/12 13:47:12;;;;;;;;;;;25.70;53.40;;;;;;10374281;28;94003;-69
2023/06/12 13:52:14;;;;;;;;;;;25.70;53.40;;;;;;10371555;28;96114;-69
2023/06/12 13:57:16;;;;;;;;;;;25.70;53.10;;;;;;10373344;28;93636;-70
2023/06/12 14:02:18;;;;;;;;;;;25.70;53.10;;;;;;10375100;28;94781;-69
2023/06/12 14:07:20;;;;;;;;;;;25.70;53.20;;;;;;10374242;28;93363;-69
2023/06/12 14:12:22;;;;;;;;;;;25.60;53.00;;;;;;10373405;28;93444;-69
2023/06/12 14:17:24;;;;;;;;;;;25.70;53.00;;;;;;10373372;28;93617;-69
2023/06/12 14:22:28;;;;;;;;;;;25.70;52.90;;;;;;10374756;28;93439;-69
2023/06/12 14:27:29;;;;;;;;;;;25.70;52.90;;;;;;10374983;28;93435;-69
2023/06/12 14:32:33;;;;;;;;;;;25.70;52.70;;;;;;10374218;28;94598;-69
2023/06/12 14:37:35;;;;;;;;;;;25.60;52.70;;;;;;10373777;28;92412;-69
2023/06/12 14:42:37;;;;;;;;;;;25.60;52.60;;;;;;10371146;28;95104;-69
2023/06/12 14:47:39;;;;;;;;;;;25.60;52.60;;;;;;10372024;28;94492;-69
2023/06/12 14:52:41;;;;;;;;;;;25.60;52.50;;;;;;10372399;28;93908;-69
2023/06/12 14:57:42;;;;;;;;;;;25.60;52.50;;;;;;10373219;28;93494;-69
2023/06/12 15:02:44;;;;;;;;;;;25.60;53.50;;;;;;10373046;28;94619;-70
2023/06/12 15:07:46;;;;;;;;;;;25.60;52.40;;;;;;10372348;28;94445;-69
2023/06/12 15:12:48;;;;;;;;;;;25.60;52.30;;;;;;10372422;28;93604;-69
2023/06/12 15:18:09;;;;;;;;;;;25.60;52.30;;;;;;10372971;28;92789;-70
2023/06/12 15:23:11;;;;;;;;;;;25.60;52.30;;;;;;10371526;28;94539;-70
2023/06/12 15:28:13;;;;;;;;;;;25.60;52.50;;;;;;10371963;28;94466;-69
2023/06/12 15:33:15;;;;;;;;;;;25.60;52.40;;;;;;10369395;28;96218;-65
2023/06/12 15:38:36;;;;;;;;;;;25.60;52.30;;;;;;10371082;28;92836;-69
2023/06/12 15:43:38;;;;;;;;;;;25.60;52.30;;;;;;10370575;28;93718;-69
2023/06/12 15:48:41;;;;;;;;;;;25.60;52.60;;;;;;10370551;28;92899;-69
2023/06/12 15:53:44;;;;;;;;;;;25.60;52.60;;;;;;10369357;28;93955;-69
2023/06/12 15:58:45;;;;;;;;;;;25.60;52.60;;;;;;10371743;28;93727;-70
2023/06/12 16:03:47;;;;;;;;;;;25.60;52.50;;;;;;10370027;28;94650;-70
2023/06/12 16:08:49;;;;;;;;;;;25.60;52.70;;;;;;10370815;28;92979;-69
2023/06/12 16:13:51;;;;;;;;;;;25.60;52.60;;;;;;10369945;28;94426;-69
2023/06/12 16:18:53;;;;;;;;;;;25.60;52.70;;;;;;10370163;28;93998;-69
2023/06/12 16:23:55;;;;;;;;;;;25.60;52.50;;;;;;10366780;28;95860;-70
2023/06/12 16:28:56;;;;;;;;;;;25.60;52.50;;;;;;10371028;28;93630;-70
2023/06/12 16:33:58;;;;;;;;;;;25.60;52.30;;;;;;10368985;28;94520;-70
2023/06/12 16:39:00;;;;;;;;;;;25.70;52.20;;;;;;10370086;28;93686;-69
2023/06/12 16:44:02;;;;;;;;;;;25.70;52.20;;;;;;10369292;28;94104;-70
2023/06/12 16:49:04;;;;;;;;;;;25.70;52.10;;;;;;10369609;28;94425;-69
2023/06/12 16:54:06;;;;;;;;;;;25.70;52.00;;;;;;10369881;28;94399;-65
2023/06/12 16:59:08;;;;;;;;;;;25.70;52.20;;;;;;10370477;28;92867;-65
2023/06/12 17:04:10;;;;;;;;;;;25.70;52.20;;;;;;10370214;28;93618;-64
2023/06/12 17:09:13;;;;;;;;;;;25.70;52.60;;;;;;10370137;28;94039;-65
2023/06/12 17:14:14;;;;;;;;;;;25.80;53.60;;;;;;10365030;28;95831;-65
2023/06/12 17:19:17;;;;;;;;;;;25.80;53.20;;;;;;10375045;28;94623;-64
2023/06/12 17:24:19;;;;;;;;;;;25.80;53.10;;;;;;10376200;28;94078;-68
2023/06/12 17:29:21;;;;;;;;;;;25.90;53.40;;;;;;10374354;28;93862;-67
2023/06/12 17:34:23;;;;;;;;;;;25.90;53.30;;;;;;10374702;28;93430;-68
2023/06/12 17:39:26;;;;;;;;;;;25.90;53.60;;;;;;10376157;28;94518;-67
2023/06/12 17:44:27;;;;;;;;;;;25.90;53.20;;;;;;10374723;28;93508;-68
2023/06/12 17:49:29;;;;;;;;;;;25.90;53.10;;;;;;10374084;28;92911;-67
2023/06/12 17:54:31;;;;;;;;;;;25.90;53.00;;;;;;10372875;28;94512;-68
2023/06/12 17:59:35;;;;;;;;;;;25.90;52.90;;;;;;10373289;28;93547;-68
2023/06/12 18:04:36;;;;;;;;;;;25.90;52.80;;;;;;10371859;28;95507;-67
2023/06/12 18:09:38;;;;;;;;;;;26.00;52.80;;;;;;10372342;28;94110;-67
2023/06/12 18:14:40;;;;;;;;;;;26.00;52.70;;;;;;10373639;28;93612;-67
2023/06/12 18:19:41;;;;;;;;;;;26.00;52.70;;;;;;10373608;28;93524;-67
2023/06/12 18:24:43;;;;;;;;;;;26.10;52.70;;;;;;10373280;28;93371;-67
2023/06/12 18:29:45;;;;;;;;;;;26.10;52.60;;;;;;10373372;28;94449;-67
2023/06/12 18:34:48;;;;;;;;;;;26.10;52.60;;;;;;10373033;28;93687;-65
2023/06/12 18:39:50;;;;;;;;;;;26.10;52.50;;;;;;10373499;28;93007;-65
2023/06/12 18:44:51;;;;;;;;;;;26.10;52.50;;;;;;10372645;28;93876;-65
2023/06/12 18:49:53;;;;;;;;;;;26.10;52.40;;;;;;10372004;28;93495;-65
2023/06/12 18:54:55;;;;;;;;;;;26.00;53.30;;;;;;10371663;28;96068;-68
2023/06/12 18:59:57;;;;;;;;;;;26.00;52.10;;;;;;10372279;28;94488;-68
2023/06/12 19:04:59;;;;;;;;;;;25.90;51.80;;;;;;10372372;28;94481;-68
2023/06/12 19:10:00;;;;;;;;;;;25.90;50.90;;;;;;10373085;28;94501;-65
2023/06/12 19:15:02;;;;;;;;;;;25.90;51.10;;;;;;10372893;28;94693;-67
2023/06/12 19:20:05;;;;;;;;;;;25.90;51.30;;;;;;10371457;28;93664;-68
2023/06/12 19:25:07;;;;;;;;;;;25.90;52.40;;;;;;10372560;28;93475;-65
2023/06/12 19:30:09;;;;;;;;;;;25.90;51.20;;;;;;10369718;28;93734;-66
2023/06/12 19:35:11;;;;;;;;;;;25.90;49.70;;;;;;10371822;28;94565;-65
2023/06/12 19:40:13;;;;;;;;;;;25.80;47.20;;;;;;10370920;28;93612;-62
2023/06/12 19:45:20;;;;;;;;;;;25.70;45.60;;;;;;10367154;28;117035;-65
2023/06/12 19:50:22;;;;;;;;;;;25.70;44.50;;;;;;10370548;28;94734;-69
2023/06/12 19:55:25;;;;;;;;;;;25.60;44.10;;;;;;10369863;28;93941;-66
2023/06/12 20:00:27;;;;;;;;;;;25.60;43.60;;;;;;10370711;28;94474;-70
2023/06/12 20:05:29;;;;;;;;;;;25.50;43.30;;;;;;10370000;28;94891;-69
2023/06/12 20:10:32;;;;;;;;;;;25.50;43.20;;;;;;10371508;28;94792;-70
2023/06/12 20:15:33;;;;;;;;;;;25.40;43.20;;;;;;10370167;28;93455;-70
2023/06/12 20:20:35;;;;;;;;;;;25.40;42.80;;;;;;10370073;28;92186;-71
2023/06/12 20:25:37;;;;;;;;;;;25.40;43.00;;;;;;10370510;28;94421;-70
2023/06/12 20:30:39;;;;;;;;;;;25.30;42.40;;;;;;10368132;28;93604;-70
2023/06/12 20:35:42;;;;;;;;;;;25.30;42.50;;;;;;10366502;28;96027;-70
2023/06/12 20:40:44;;;;;;;;;;;25.30;42.40;;;;;;10369605;28;94744;-70
2023/06/12 20:45:45;;;;;;;;;;;25.20;42.20;;;;;;10366967;28;93575;-70
2023/06/12 20:50:47;;;;;;;;;;;25.10;41.80;;;;;;10370561;28;94517;-70
2023/06/12 20:55:49;;;;;;;;;;;25.10;42.10;;;;;;10376657;28;94044;-69
2023/06/12 21:00:52;;;;;;;;;;;25.10;42.00;;;;;;10375044;28;95943;-69
2023/06/12 21:05:54;;;;;;;;;;;25.20;42.60;;;;;;10376357;28;93465;-70
2023/06/12 21:10:56;;;;;;;;;;;25.20;42.70;;;;;;10377333;28;93784;-70
2023/06/12 21:15:57;;;;;;;;;;;25.30;42.90;;;;;;10375763;28;93412;-69
2023/06/12 21:20:59;;;;;;;;;;;25.30;43.30;;;;;;10375418;28;93540;-70
2023/06/12 21:26:01;;;;;;;;;;;25.30;43.40;;;;;;10370763;28;95457;-69
2023/06/12 21:31:03;;;;;;;;;;;25.40;43.50;;;;;;10375507;28;94495;-69
2023/06/12 21:36:05;;;;;;;;;;;25.40;43.60;;;;;;10374442;28;93457;-71
2023/06/12 21:41:07;;;;;;;;;;;25.40;43.60;;;;;;10375752;28;93747;-70
2023/06/12 21:46:09;;;;;;;;;;;25.40;43.50;;;;;;10373991;28;93960;-70
2023/06/12 21:51:11;;;;;;;;;;;25.40;43.90;;;;;;10372243;28;94606;-70
2023/06/12 21:56:13;;;;;;;;;;;25.40;43.70;;;;;;10374379;28;93605;-70
2023/06/12 22:01:14;;;;;;;;;;;25.40;43.50;;;;;;10372524;28;92814;-69
2023/06/12 22:06:16;;;;;;;;;;;25.40;43.50;;;;;;10374354;28;93693;-69
2023/06/12 22:11:18;;;;;;;;;;;25.40;43.40;;;;;;10373402;28;93663;-69
2023/06/12 22:16:20;;;;;;;;;;;25.40;43.00;;;;;;10370531;28;96169;-69
2023/06/12 22:21:22;;;;;;;;;;;25.40;43.10;;;;;;10373355;28;93549;-69
2023/06/12 22:26:24;;;;;;;;;;;25.40;42.90;;;;;;10373475;28;93687;-69
2023/06/12 22:31:26;;;;;;;;;;;25.40;43.00;;;;;;10373713;28;94095;-69
2023/06/12 22:36:27;;;;;;;;;;;25.40;43.00;;;;;;10373275;28;94883;-69
2023/06/12 22:41:29;;;;;;;;;;;25.40;43.00;;;;;;10373281;28;93482;-69
2023/06/12 22:46:32;;;;;;;;;;;25.40;43.00;;;;;;10373018;28;93090;-69
2023/06/12 22:51:34;;;;;;;;;;;25.40;43.20;;;;;;10374418;28;93702;-70
2023/06/12 22:56:35;;;;;;;;;;;25.40;43.20;;;;;;10373553;28;92926;-65
2023/06/12 23:01:38;;;;;;;;;;;25.40;43.20;;;;;;10371706;28;92934;-64
2023/06/12 23:06:40;;;;;;;;;;;25.40;43.30;;;;;;10369333;28;96906;-64
2023/06/12 23:11:42;;;;;;;;;;;25.40;43.40;;;;;;10373145;28;93875;-64
2023/06/12 23:16:44;;;;;;;;;;;25.40;43.40;;;;;;10372059;28;94319;-66
2023/06/12 23:21:47;;;;;;;;;;;25.30;43.20;;;;;;10371201;28;94404;-66
2023/06/12 23:26:51;;;;;;;;;;;25.40;43.40;;;;;;10371168;28;93675;-66
2023/06/12 23:31:53;;;;;;;;;;;25.30;43.20;;;;;;10372075;28;94501;-69
2023/06/12 23:36:55;;;;;;;;;;;25.30;43.20;;;;;;10371164;28;93254;-69
2023/06/12 23:41:59;;;;;;;;;;;25.30;43.20;;;;;;10372020;28;92929;-69
2023/06/12 23:47:04;;;;;;;;;;;25.30;43.40;;;;;;10370917;28;94488;-69
2023/06/12 23:52:07;;;;;;;;;;;25.30;43.30;;;;;;10372155;28;94409;-69
2023/06/12 23:57:09;;;;;;;;;;;25.30;43.40;;;;;;10367831;28;96740;-70
